createdAt,value
2018-12-20T00:01:06.426Z,46.80
2018-12-20T00:03:36.043Z,46.80
2018-12-20T00:06:05.215Z,46.80
2018-12-20T00:08:34.555Z,46.70
2018-12-20T00:11:03.865Z,46.60
2018-12-20T00:13:33.111Z,46.60
2018-12-20T00:16:02.335Z,46.40
2018-12-20T00:18:31.650Z,46.50
2018-12-20T00:21:00.834Z,46.40
2018-12-20T00:23:30.118Z,46.40
2018-12-20T00:25:59.348Z,46.40
2018-12-20T00:28:28.561Z,46.40
2018-12-20T00:30:57.754Z,46.40
2018-12-20T00:33:26.962Z,46.40
2018-12-20T00:35:56.218Z,46.30
2018-12-20T00:38:25.687Z,46.40
2018-12-20T00:40:54.975Z,46.30
2018-12-20T00:43:24.169Z,46.30
2018-12-20T00:45:53.325Z,46.20
2018-12-20T00:48:22.613Z,46.10
2018-12-20T00:50:51.969Z,46.20
2018-12-20T00:53:21.280Z,46.20
2018-12-20T00:55:50.457Z,46.10
2018-12-20T00:58:19.662Z,46.10
2018-12-20T01:00:48.854Z,46.00
2018-12-20T01:03:18.246Z,46.00
2018-12-20T01:05:47.538Z,45.90
2018-12-20T01:08:16.770Z,46.00
2018-12-20T01:10:45.963Z,45.90
2018-12-20T01:13:15.367Z,45.90
2018-12-20T01:15:44.775Z,45.90
2018-12-20T01:18:14.153Z,45.90
2018-12-20T01:20:43.524Z,45.80
2018-12-20T01:23:12.946Z,45.90
2018-12-20T01:25:42.357Z,45.80
2018-12-20T01:28:11.715Z,45.70
2018-12-20T01:30:40.944Z,45.70
2018-12-20T01:33:10.254Z,45.70
2018-12-20T01:35:39.484Z,45.70
2018-12-20T01:38:08.710Z,45.70
2018-12-20T01:40:37.990Z,45.60
2018-12-20T01:43:07.337Z,45.70
2018-12-20T01:45:36.706Z,45.70
2018-12-20T01:48:06.000Z,45.70
2018-12-20T01:50:35.199Z,45.70
2018-12-20T01:53:04.439Z,45.70
2018-12-20T01:55:33.667Z,45.60
2018-12-20T01:58:03.212Z,45.60
2018-12-20T02:00:32.655Z,45.60
2018-12-20T02:03:01.986Z,45.60
2018-12-20T02:05:31.340Z,45.60
2018-12-20T02:08:00.771Z,45.50
2018-12-20T02:10:30.038Z,45.60
2018-12-20T02:12:59.314Z,45.60
2018-12-20T02:15:28.498Z,45.60
2018-12-20T02:17:57.675Z,45.60
2018-12-20T02:20:27.023Z,45.60
2018-12-20T02:22:56.436Z,45.50
2018-12-20T02:25:25.865Z,45.60
2018-12-20T02:27:55.266Z,45.60
2018-12-20T02:30:24.467Z,45.50
2018-12-20T02:32:54.012Z,45.60
2018-12-20T02:35:23.434Z,45.50
2018-12-20T02:37:52.816Z,45.50
2018-12-20T02:40:22.252Z,45.60
2018-12-20T02:42:51.534Z,46.10
2018-12-20T02:45:20.842Z,45.50
2018-12-20T02:47:50.273Z,45.50
2018-12-20T02:50:19.859Z,45.40
2018-12-20T02:52:49.007Z,45.60
2018-12-20T02:55:18.443Z,45.50
2018-12-20T02:57:47.804Z,45.50
2018-12-20T03:00:17.191Z,45.70
2018-12-20T03:02:46.415Z,45.50
2018-12-20T03:05:15.731Z,45.50
2018-12-20T03:07:45.100Z,45.50
2018-12-20T03:10:14.383Z,45.50
2018-12-20T03:12:43.620Z,45.50
2018-12-20T03:15:19.850Z,45.50
2018-12-20T03:17:44.100Z,45.40
2018-12-20T03:20:13.537Z,45.50
2018-12-20T03:22:42.995Z,45.40
2018-12-20T03:25:12.306Z,45.50
2018-12-20T03:27:41.689Z,45.40
2018-12-20T03:30:10.979Z,45.40
2018-12-20T03:32:40.554Z,45.40
2018-12-20T03:35:09.951Z,45.40
2018-12-20T03:37:39.538Z,45.40
2018-12-20T03:40:08.792Z,45.40
2018-12-20T03:42:38.229Z,45.40
2018-12-20T03:45:07.825Z,45.30
2018-12-20T03:47:37.259Z,45.30
2018-12-20T03:50:06.747Z,45.40
2018-12-20T03:52:36.010Z,45.30
2018-12-20T03:55:05.414Z,45.40
2018-12-20T03:57:34.609Z,45.40
2018-12-20T04:00:03.991Z,45.40
2018-12-20T04:02:33.621Z,45.40
2018-12-20T04:05:03.048Z,45.30
2018-12-20T04:07:32.629Z,45.40
2018-12-20T04:10:02.138Z,45.30
2018-12-20T04:12:31.445Z,45.80
2018-12-20T04:15:00.783Z,45.30
2018-12-20T04:17:30.246Z,45.20
2018-12-20T04:19:59.523Z,45.30
2018-12-20T04:22:28.677Z,45.20
2018-12-20T04:24:58.155Z,45.20
2018-12-20T04:27:27.694Z,45.30
2018-12-20T04:29:56.883Z,45.30
2018-12-20T04:32:26.086Z,45.30
2018-12-20T04:34:55.397Z,45.20
2018-12-20T04:37:24.955Z,45.20
2018-12-20T04:39:54.380Z,45.30
2018-12-20T04:42:23.789Z,45.30
2018-12-20T04:44:53.250Z,45.30
2018-12-20T04:47:22.789Z,45.40
2018-12-20T04:49:52.238Z,45.40
2018-12-20T04:52:21.563Z,45.50
2018-12-20T04:54:50.801Z,45.40
2018-12-20T04:57:20.011Z,45.40
2018-12-20T04:59:49.577Z,45.30
2018-12-20T05:02:18.991Z,45.30
2018-12-20T05:04:48.286Z,45.20
2018-12-20T05:07:17.645Z,45.20
2018-12-20T05:09:47.239Z,45.20
2018-12-20T05:12:16.537Z,45.30
2018-12-20T05:14:45.795Z,45.30
2018-12-20T05:17:15.130Z,45.30
2018-12-20T05:19:44.480Z,45.30
2018-12-20T05:22:13.795Z,45.30
2018-12-20T05:24:43.354Z,45.10
2018-12-20T05:27:12.843Z,45.10
2018-12-20T05:29:42.127Z,45.80
2018-12-20T05:32:11.744Z,45.30
2018-12-20T05:34:41.296Z,45.20
2018-12-20T05:37:10.643Z,45.20
2018-12-20T05:39:39.915Z,45.10
2018-12-20T05:42:09.306Z,44.90
2018-12-20T05:44:38.749Z,45.10
2018-12-20T05:47:08.148Z,45.40
2018-12-20T05:49:37.330Z,46.30
2018-12-20T05:52:06.530Z,46.10
2018-12-20T05:54:35.995Z,46.50
2018-12-20T05:57:05.447Z,46.80
2018-12-20T05:59:34.851Z,46.70
2018-12-20T06:02:04.059Z,47.20
2018-12-20T06:04:33.501Z,45.80
2018-12-20T06:07:02.872Z,45.80
2018-12-20T06:09:32.340Z,45.90
2018-12-20T06:12:01.867Z,46.50
2018-12-20T06:14:31.298Z,46.50
2018-12-20T06:17:00.587Z,46.50
2018-12-20T06:19:29.880Z,46.70
2018-12-20T06:21:59.318Z,46.50
2018-12-20T06:24:28.726Z,46.50
2018-12-20T06:26:58.166Z,46.40
2018-12-20T06:29:27.365Z,46.40
2018-12-20T06:31:56.578Z,46.40
2018-12-20T06:34:25.899Z,46.30
2018-12-20T06:36:55.178Z,46.30
2018-12-20T06:39:24.611Z,46.10
2018-12-20T06:41:53.899Z,45.60
2018-12-20T06:44:23.471Z,45.60
2018-12-20T06:46:52.820Z,46.00
2018-12-20T06:49:22.338Z,46.00
2018-12-20T06:51:51.640Z,46.00
2018-12-20T06:54:21.011Z,46.20
2018-12-20T06:56:50.281Z,46.40
2018-12-20T06:59:19.548Z,45.90
2018-12-20T07:01:48.758Z,45.50
2018-12-20T07:04:18.116Z,45.80
2018-12-20T07:06:47.383Z,46.00
2018-12-20T07:09:16.884Z,45.90
2018-12-20T07:11:46.198Z,45.90
2018-12-20T07:14:15.490Z,45.80
2018-12-20T07:16:44.731Z,46.00
2018-12-20T07:19:14.112Z,45.80
2018-12-20T07:21:43.407Z,45.80
2018-12-20T07:24:12.667Z,46.00
2018-12-20T07:26:41.903Z,45.80
2018-12-20T07:29:11.120Z,45.70
2018-12-20T07:31:40.402Z,45.70
2018-12-20T07:34:09.631Z,45.80
2018-12-20T07:36:38.881Z,45.90
2018-12-20T07:39:08.900Z,45.80
2018-12-20T07:41:38.219Z,45.70
2018-12-20T07:44:07.451Z,45.90
2018-12-20T07:46:37.979Z,45.90
2018-12-20T07:49:07.583Z,45.90
2018-12-20T07:51:36.922Z,45.90
2018-12-20T07:54:06.142Z,45.90
2018-12-20T07:56:35.334Z,45.70
2018-12-20T07:59:04.526Z,45.80
2018-12-20T08:01:33.707Z,45.80
2018-12-20T08:04:03.416Z,45.60
2018-12-20T08:06:32.960Z,45.60
2018-12-20T08:09:02.193Z,45.60
2018-12-20T08:11:31.441Z,45.70
2018-12-20T08:14:00.651Z,45.70
2018-12-20T08:16:29.891Z,45.60
2018-12-20T08:18:59.223Z,45.60
2018-12-20T08:21:28.459Z,45.50
2018-12-20T08:23:57.719Z,45.50
2018-12-20T08:26:27.045Z,45.50
2018-12-20T08:28:56.266Z,45.60
2018-12-20T08:31:25.470Z,45.50
2018-12-20T08:33:54.715Z,45.70
2018-12-20T08:36:23.945Z,45.70
2018-12-20T08:38:53.207Z,45.60
2018-12-20T08:41:22.401Z,45.80
2018-12-20T08:43:51.633Z,45.70
2018-12-20T08:46:20.930Z,45.50
2018-12-20T08:48:50.174Z,45.70
2018-12-20T08:51:19.442Z,45.80
2018-12-20T08:53:48.706Z,45.80
2018-12-20T08:56:17.983Z,45.70
2018-12-20T08:58:47.312Z,45.50
2018-12-20T09:01:16.697Z,45.60
2018-12-20T09:03:46.118Z,45.70
2018-12-20T09:06:15.369Z,45.70
2018-12-20T09:08:44.762Z,45.60
2018-12-20T09:11:14.074Z,45.80
2018-12-20T09:13:43.314Z,45.90
2018-12-20T09:16:12.606Z,45.70
2018-12-20T09:18:42.113Z,45.70
2018-12-20T09:21:11.406Z,45.70
2018-12-20T09:23:40.618Z,45.60
2018-12-20T09:26:09.910Z,45.70
2018-12-20T09:28:39.318Z,45.70
2018-12-20T09:31:08.859Z,45.80
2018-12-20T09:33:38.225Z,45.80
2018-12-20T09:36:07.523Z,46.40
2018-12-20T09:38:36.770Z,45.80
2018-12-20T09:41:06.198Z,45.70
2018-12-20T09:43:35.678Z,45.70
2018-12-20T09:46:04.929Z,46.40
2018-12-20T09:48:34.347Z,45.80
2018-12-20T09:51:03.565Z,45.90
2018-12-20T09:53:32.808Z,45.90
2018-12-20T09:56:02.145Z,45.70
2018-12-20T09:58:31.405Z,45.80
2018-12-20T10:01:00.665Z,45.90
2018-12-20T10:03:29.942Z,45.80
2018-12-20T10:05:59.158Z,45.90
2018-12-20T10:08:28.405Z,45.70
2018-12-20T10:10:57.662Z,45.80
2018-12-20T10:13:26.888Z,45.80
2018-12-20T10:15:56.110Z,45.90
2018-12-20T10:18:25.443Z,45.80
2018-12-20T10:20:54.739Z,45.80
2018-12-20T10:23:24.036Z,45.80
2018-12-20T10:25:53.234Z,45.90
2018-12-20T10:28:22.506Z,45.80
2018-12-20T10:30:51.767Z,45.80
2018-12-20T10:33:21.064Z,46.10
2018-12-20T10:35:50.430Z,45.90
2018-12-20T10:38:19.848Z,45.90
2018-12-20T10:40:49.186Z,46.30
2018-12-20T10:43:18.470Z,45.90
2018-12-20T10:45:47.752Z,45.90
2018-12-20T10:48:17.059Z,46.20
2018-12-20T10:50:46.311Z,45.90
2018-12-20T10:53:15.528Z,46.20
2018-12-20T10:55:44.778Z,46.00
2018-12-20T10:58:14.004Z,46.10
2018-12-20T11:00:48.208Z,46.70
2018-12-20T11:03:22.507Z,46.20
2018-12-20T11:05:57.800Z,46.40
2018-12-20T11:08:30.175Z,46.20
2018-12-20T11:11:05.372Z,46.20
2018-12-20T11:13:34.608Z,46.10
2018-12-20T11:16:03.922Z,46.10
2018-12-20T11:18:33.247Z,46.20
2018-12-20T11:21:02.440Z,46.10
2018-12-20T11:23:31.678Z,46.20
2018-12-20T11:26:00.938Z,46.00
2018-12-20T11:28:30.147Z,46.10
2018-12-20T11:30:59.401Z,46.10
2018-12-20T11:33:28.691Z,46.10
2018-12-20T11:35:57.938Z,46.10
2018-12-20T11:38:27.203Z,46.30
2018-12-20T11:40:56.465Z,46.10
2018-12-20T11:43:25.713Z,46.10
2018-12-20T11:45:54.920Z,46.20
2018-12-20T11:48:24.229Z,46.10
2018-12-20T11:50:53.445Z,46.20
2018-12-20T11:53:22.698Z,46.00
2018-12-20T11:55:51.905Z,46.50
2018-12-20T11:58:21.306Z,46.20
2018-12-20T12:00:51.274Z,46.30
2018-12-20T12:03:20.520Z,46.40
2018-12-20T12:05:49.854Z,46.40
2018-12-20T12:08:19.168Z,46.20
2018-12-20T12:10:48.358Z,46.40
2018-12-20T12:13:17.574Z,46.60
2018-12-20T12:15:46.894Z,46.30
2018-12-20T12:18:16.226Z,46.20
2018-12-20T12:20:45.468Z,46.20
2018-12-20T12:23:14.824Z,46.30
2018-12-20T12:25:44.123Z,46.20
2018-12-20T12:28:13.418Z,46.10
2018-12-20T12:30:42.726Z,46.30
2018-12-20T12:33:11.926Z,46.20
2018-12-20T12:35:41.170Z,46.40
2018-12-20T12:38:10.532Z,46.20
2018-12-20T12:40:39.749Z,46.30
2018-12-20T12:43:08.946Z,46.30
2018-12-20T12:45:38.190Z,46.40
2018-12-20T12:48:07.514Z,46.20
2018-12-20T12:50:36.742Z,46.30
2018-12-20T12:53:05.960Z,46.40
2018-12-20T12:55:35.154Z,46.20
2018-12-20T12:58:05.118Z,45.80
2018-12-20T13:00:34.591Z,46.40
2018-12-20T13:03:03.838Z,46.20
2018-12-20T13:05:33.054Z,46.40
2018-12-20T13:08:02.293Z,46.40
2018-12-20T13:10:31.472Z,46.30
2018-12-20T13:13:00.757Z,46.30
2018-12-20T13:15:29.961Z,45.80
2018-12-20T13:17:59.218Z,46.40
2018-12-20T13:20:28.499Z,46.40
2018-12-20T13:22:57.724Z,46.40
2018-12-20T13:25:26.951Z,46.30
2018-12-20T13:27:56.233Z,46.40
2018-12-20T13:30:25.463Z,46.40
2018-12-20T13:32:54.700Z,46.40
2018-12-20T13:35:23.916Z,47.10
2018-12-20T13:37:53.225Z,46.50
2018-12-20T13:40:22.478Z,46.50
2018-12-20T13:42:51.669Z,46.50
2018-12-20T13:45:20.955Z,46.60
2018-12-20T13:47:50.211Z,46.40
2018-12-20T13:50:19.424Z,46.70
2018-12-20T13:52:48.643Z,46.30
2018-12-20T13:55:17.847Z,46.60
2018-12-20T13:57:47.087Z,46.40
2018-12-20T14:00:16.339Z,47.10
2018-12-20T14:02:45.829Z,46.50
2018-12-20T14:05:15.128Z,46.50
2018-12-20T14:07:44.424Z,46.50
2018-12-20T14:10:13.673Z,46.50
2018-12-20T14:12:42.909Z,46.70
2018-12-20T14:15:12.118Z,46.70
2018-12-20T14:17:41.560Z,46.50
2018-12-20T14:20:10.787Z,46.60
2018-12-20T14:22:40.044Z,46.60
2018-12-20T14:25:09.254Z,46.50
2018-12-20T14:27:38.553Z,46.60
2018-12-20T14:30:09.908Z,46.70
2018-12-20T14:32:39.121Z,46.50
2018-12-20T14:35:08.394Z,47.40
2018-12-20T14:37:38.724Z,46.50
2018-12-20T14:40:09.851Z,46.60
2018-12-20T14:42:39.140Z,46.80
2018-12-20T14:45:08.434Z,46.60
2018-12-20T14:47:37.660Z,46.60
2018-12-20T14:50:08.627Z,46.60
2018-12-20T14:52:37.855Z,46.60
2018-12-20T14:55:08.474Z,46.60
2018-12-20T14:57:37.740Z,46.80
2018-12-20T15:00:08.890Z,46.80
2018-12-20T15:02:38.083Z,46.60
2018-12-20T15:05:08.042Z,46.60
2018-12-20T15:07:37.317Z,47.40
2018-12-20T15:10:08.239Z,46.60
2018-12-20T15:12:37.442Z,46.70
2018-12-20T15:15:07.753Z,46.70
2018-12-20T15:17:37.174Z,46.70
2018-12-20T15:20:08.187Z,46.60
2018-12-20T15:22:37.482Z,46.90
2018-12-20T15:25:06.686Z,46.70
2018-12-20T15:27:35.908Z,46.90
2018-12-20T15:30:05.334Z,46.70
2018-12-20T15:32:34.510Z,46.90
2018-12-20T15:35:03.748Z,46.80
2018-12-20T15:37:33.002Z,46.70
2018-12-20T15:40:02.361Z,46.60
2018-12-20T15:42:31.546Z,46.70
2018-12-20T15:45:00.754Z,46.80
2018-12-20T15:47:30.046Z,46.80
2018-12-20T15:49:59.256Z,46.60
2018-12-20T15:52:28.468Z,46.50
2018-12-20T15:54:57.700Z,46.60
2018-12-20T15:57:27.025Z,46.50
2018-12-20T15:59:56.256Z,46.70
2018-12-20T16:02:25.544Z,46.70
2018-12-20T16:04:55.047Z,46.70
2018-12-20T16:07:24.404Z,46.80
2018-12-20T16:09:53.610Z,46.70
2018-12-20T16:12:22.827Z,47.10
2018-12-20T16:14:52.071Z,47.60
2018-12-20T16:17:21.350Z,48.00
2018-12-20T16:19:50.523Z,47.70
2018-12-20T16:22:19.707Z,47.20
2018-12-20T16:24:48.938Z,47.10
2018-12-20T16:27:18.626Z,47.20
2018-12-20T16:29:47.842Z,47.10
2018-12-20T16:32:17.083Z,48.50
2018-12-20T16:34:46.323Z,48.00
2018-12-20T16:37:15.506Z,47.80
2018-12-20T16:39:44.703Z,47.90
2018-12-20T16:42:13.892Z,48.10
2018-12-20T16:44:43.419Z,48.20
2018-12-20T16:47:12.608Z,48.40
2018-12-20T16:49:41.852Z,48.40
2018-12-20T16:52:11.037Z,48.50
2018-12-20T16:54:40.229Z,48.60
2018-12-20T16:57:09.531Z,48.60
2018-12-20T16:59:38.766Z,48.70
2018-12-20T17:02:07.991Z,48.80
2018-12-20T17:04:37.214Z,48.80
2018-12-20T17:07:06.445Z,48.90
2018-12-20T17:09:35.662Z,48.80
2018-12-20T17:12:04.837Z,48.80
2018-12-20T17:14:34.226Z,48.80
2018-12-20T17:17:03.455Z,48.80
2018-12-20T17:19:32.741Z,48.80
2018-12-20T17:22:01.937Z,48.80
2018-12-20T17:24:33.953Z,48.80
2018-12-20T17:27:03.226Z,48.80
2018-12-20T17:29:32.549Z,48.90
2018-12-20T17:32:01.885Z,48.80
2018-12-20T17:34:31.125Z,48.90
2018-12-20T17:37:00.295Z,48.80
2018-12-20T17:39:29.498Z,48.80
2018-12-20T17:41:58.681Z,48.80
2018-12-20T17:44:27.895Z,48.80
2018-12-20T17:46:57.572Z,48.80
2018-12-20T17:49:30.688Z,48.70
2018-12-20T17:51:58.491Z,48.70
2018-12-20T17:54:27.756Z,48.60
2018-12-20T17:56:56.923Z,48.70
2018-12-20T17:59:26.241Z,48.70
2018-12-20T18:01:55.502Z,48.80
2018-12-20T18:04:24.807Z,48.80
2018-12-20T18:06:53.983Z,48.80
2018-12-20T18:09:23.178Z,48.70
2018-12-20T18:11:52.415Z,49.40
2018-12-20T18:14:21.613Z,48.70
2018-12-20T18:16:50.843Z,48.60
2018-12-20T18:19:20.132Z,48.70
2018-12-20T18:21:49.374Z,48.70
2018-12-20T18:24:18.615Z,48.70
2018-12-20T18:26:47.862Z,49.20
2018-12-20T18:29:17.071Z,48.90
2018-12-20T18:31:46.475Z,49.00
2018-12-20T18:34:16.165Z,49.80
2018-12-20T18:36:45.481Z,50.40
2018-12-20T18:39:14.740Z,50.20
2018-12-20T18:41:43.964Z,51.20
2018-12-20T18:44:13.171Z,51.90
2018-12-20T18:46:42.463Z,52.20
2018-12-20T18:49:11.707Z,51.90
2018-12-20T18:51:40.932Z,51.60
2018-12-20T18:54:10.215Z,51.20
2018-12-20T18:56:39.418Z,51.00
2018-12-20T18:59:08.735Z,50.90
2018-12-20T19:01:37.946Z,50.90
2018-12-20T19:04:07.162Z,50.60
2018-12-20T19:06:36.446Z,50.70
2018-12-20T19:09:06.842Z,50.40
2018-12-20T19:11:55.923Z,50.50
2018-12-20T19:14:25.135Z,50.30
2018-12-20T19:16:54.363Z,50.20
2018-12-20T19:19:23.629Z,50.00
2018-12-20T19:21:52.829Z,50.20
2018-12-20T19:24:22.125Z,50.00
2018-12-20T19:26:51.317Z,49.90
2018-12-20T19:29:20.553Z,49.90
2018-12-20T19:31:49.812Z,50.40
2018-12-20T19:34:19.055Z,49.70
2018-12-20T19:36:48.269Z,49.60
2018-12-20T19:39:18.465Z,49.50
2018-12-20T19:41:47.683Z,49.50
2018-12-20T19:44:16.873Z,49.50
2018-12-20T19:46:46.199Z,49.60
2018-12-20T19:49:15.514Z,49.50
2018-12-20T19:51:44.724Z,49.60
2018-12-20T19:54:13.931Z,49.60
2018-12-20T19:56:43.156Z,49.70
2018-12-20T19:59:12.389Z,49.70
2018-12-20T20:01:41.603Z,49.70
2018-12-20T20:04:10.806Z,49.80
2018-12-20T20:06:40.030Z,49.70
2018-12-20T20:09:09.338Z,49.80
2018-12-20T20:11:38.604Z,49.80
2018-12-20T20:14:07.795Z,49.80
2018-12-20T20:16:36.969Z,49.80
2018-12-20T20:19:06.296Z,49.80
2018-12-20T20:21:35.498Z,50.40
2018-12-20T20:24:04.748Z,49.70
2018-12-20T20:26:33.954Z,49.70
2018-12-20T20:29:03.192Z,49.70
2018-12-20T20:31:32.456Z,49.80
2018-12-20T20:34:01.650Z,49.70
2018-12-20T20:36:30.848Z,49.70
2018-12-20T20:39:02.370Z,49.70
2018-12-20T20:41:31.799Z,49.60
2018-12-20T20:44:01.075Z,49.60
2018-12-20T20:46:30.288Z,49.50
2018-12-20T20:48:59.506Z,49.50
2018-12-20T20:51:28.758Z,49.10
2018-12-20T20:53:57.938Z,49.10
2018-12-20T20:56:28.698Z,48.90
2018-12-20T20:58:57.923Z,48.80
2018-12-20T21:01:27.470Z,48.70
2018-12-20T21:04:03.345Z,48.80
2018-12-20T21:06:27.799Z,48.70
2018-12-20T21:08:57.073Z,48.70
2018-12-20T21:11:26.233Z,48.60
2018-12-20T21:13:55.396Z,48.50
2018-12-20T21:16:24.606Z,48.50
2018-12-20T21:18:53.854Z,48.40
2018-12-20T21:21:22.985Z,48.30
2018-12-20T21:23:52.162Z,48.30
2018-12-20T21:26:21.333Z,48.30
2018-12-20T21:28:50.516Z,48.20
2018-12-20T21:31:19.817Z,48.20
2018-12-20T21:33:49.126Z,48.20
2018-12-20T21:36:18.313Z,48.10
2018-12-20T21:38:47.661Z,48.10
2018-12-20T21:41:16.831Z,47.90
2018-12-20T21:43:46.026Z,48.00
2018-12-20T21:46:15.170Z,47.90
2018-12-20T21:48:44.474Z,47.90
2018-12-20T21:51:13.638Z,47.90
2018-12-20T21:53:42.841Z,47.90
2018-12-20T21:56:12.005Z,47.80
2018-12-20T21:58:41.230Z,47.70
2018-12-20T22:01:10.408Z,47.70
2018-12-20T22:03:39.561Z,47.70
2018-12-20T22:06:08.735Z,47.70
2018-12-20T22:08:37.926Z,47.60
2018-12-20T22:11:07.088Z,47.50
2018-12-20T22:13:36.234Z,47.50
2018-12-20T22:16:05.397Z,47.50
2018-12-20T22:18:34.642Z,47.60
2018-12-20T22:21:03.830Z,47.40
2018-12-20T22:23:32.974Z,47.50
2018-12-20T22:26:02.123Z,47.40
2018-12-20T22:28:31.284Z,47.30
2018-12-20T22:31:00.431Z,48.00
2018-12-20T22:33:29.641Z,47.30
2018-12-20T22:35:58.920Z,47.30
2018-12-20T22:38:28.249Z,47.20
2018-12-20T22:40:57.439Z,47.20
2018-12-20T22:43:26.588Z,47.10
2018-12-20T22:45:55.791Z,47.10
2018-12-20T22:48:24.994Z,47.10
2018-12-20T22:50:56.037Z,47.10
2018-12-20T22:53:25.395Z,47.10
2018-12-20T22:55:54.596Z,47.00
2018-12-20T22:58:23.822Z,46.90
2018-12-20T23:00:56.065Z,47.00
2018-12-20T23:03:25.313Z,47.00
2018-12-20T23:05:54.530Z,47.00
2018-12-20T23:08:23.800Z,46.90
2018-12-20T23:10:52.995Z,46.90
2018-12-20T23:13:22.210Z,46.90
2018-12-20T23:15:51.355Z,46.90
2018-12-20T23:18:20.584Z,46.80
2018-12-20T23:20:49.758Z,46.90
2018-12-20T23:23:18.903Z,46.80
2018-12-20T23:25:48.159Z,46.80
2018-12-20T23:28:17.389Z,46.80
2018-12-20T23:30:46.654Z,46.80
2018-12-20T23:33:15.807Z,46.90
2018-12-20T23:35:44.948Z,47.40
2018-12-20T23:38:14.246Z,48.80
2018-12-20T23:40:43.398Z,49.20
2018-12-20T23:43:12.590Z,49.20
2018-12-20T23:45:41.899Z,49.30
2018-12-20T23:48:11.239Z,49.30
2018-12-20T23:50:40.443Z,49.30
2018-12-20T23:53:09.595Z,49.20
2018-12-20T23:55:38.740Z,48.80
2018-12-20T23:58:07.991Z,48.50
